sensor_id;sensor_type;location;lat;lon;timestamp;P1;durP1;ratioP1;P2;durP2;ratioP2
23531;SDS011;11943;52.270;20.978;2023-04-15T00:00:27;11.15;;;8.27;;
23531;SDS011;11943;52.270;20.978;2023-04-15T00:02:53;11.57;;;8.80;;
23531;SDS011;11943;52.270;20.978;2023-04-15T00:05:19;11.23;;;9.20;;
23531;SDS011;11943;52.270;20.978;2023-04-15T00:07:45;11.68;;;8.90;;
23531;SDS011;11943;52.270;20.978;2023-04-15T00:10:11;12.48;;;9.30;;
23531;SDS011;11943;52.270;20.978;2023-04-15T00:12:38;13.00;;;8.95;;
23531;SDS011;11943;52.270;20.978;2023-04-15T00:15:05;15.75;;;9.32;;
23531;SDS011;11943;52.270;20.978;2023-04-15T00:17:33;12.35;;;8.60;;
23531;SDS011;11943;52.270;20.978;2023-04-15T00:19:58;13.52;;;9.27;;
23531;SDS011;11943;52.270;20.978;2023-04-15T00:22:24;11.68;;;8.43;;
23531;SDS011;11943;52.270;20.978;2023-04-15T00:24:53;12.27;;;9.30;;
23531;SDS011;11943;52.270;20.978;2023-04-15T00:27:19;10.18;;;8.68;;
23531;SDS011;11943;52.270;20.978;2023-04-15T00:29:44;11.55;;;9.23;;
23531;SDS011;11943;52.270;20.978;2023-04-15T00:32:10;11.95;;;9.57;;
23531;SDS011;11943;52.270;20.978;2023-04-15T00:34:36;15.98;;;10.00;;
23531;SDS011;11943;52.270;20.978;2023-04-15T00:37:02;12.30;;;9.55;;
23531;SDS011;11943;52.270;20.978;2023-04-15T00:39:27;14.93;;;9.82;;
23531;SDS011;11943;52.270;20.978;2023-04-15T00:41:53;14.73;;;10.52;;
23531;SDS011;11943;52.270;20.978;2023-04-15T00:44:20;12.20;;;9.60;;
23531;SDS011;11943;52.270;20.978;2023-04-15T00:46:46;12.88;;;9.43;;
23531;SDS011;11943;52.270;20.978;2023-04-15T00:49:14;15.10;;;9.63;;
23531;SDS011;11943;52.270;20.978;2023-04-15T00:51:41;13.02;;;9.68;;
23531;SDS011;11943;52.270;20.978;2023-04-15T00:54:07;14.75;;;9.90;;
23531;SDS011;11943;52.270;20.978;2023-04-15T00:56:34;12.52;;;9.95;;
23531;SDS011;11943;52.270;20.978;2023-04-15T00:59:00;12.25;;;9.95;;
23531;SDS011;11943;52.270;20.978;2023-04-15T01:01:26;16.80;;;10.73;;
23531;SDS011;11943;52.270;20.978;2023-04-15T01:03:54;14.73;;;11.10;;
23531;SDS011;11943;52.270;20.978;2023-04-15T01:06:22;13.27;;;11.13;;
23531;SDS011;11943;52.270;20.978;2023-04-15T01:08:48;12.48;;;10.45;;
23531;SDS011;11943;52.270;20.978;2023-04-15T01:11:14;13.00;;;10.23;;
23531;SDS011;11943;52.270;20.978;2023-04-15T01:13:41;14.52;;;9.90;;
23531;SDS011;11943;52.270;20.978;2023-04-15T01:16:07;13.80;;;10.90;;
23531;SDS011;11943;52.270;20.978;2023-04-15T01:18:33;14.48;;;11.45;;
23531;SDS011;11943;52.270;20.978;2023-04-15T01:21:01;13.90;;;11.85;;
23531;SDS011;11943;52.270;20.978;2023-04-15T01:23:29;14.23;;;11.98;;
23531;SDS011;11943;52.270;20.978;2023-04-15T01:25:55;17.83;;;12.35;;
23531;SDS011;11943;52.270;20.978;2023-04-15T01:28:21;14.75;;;11.15;;
23531;SDS011;11943;52.270;20.978;2023-04-15T01:30:47;17.60;;;11.25;;
23531;SDS011;11943;52.270;20.978;2023-04-15T01:33:13;15.68;;;12.15;;
23531;SDS011;11943;52.270;20.978;2023-04-15T01:35:38;17.88;;;11.30;;
23531;SDS011;11943;52.270;20.978;2023-04-15T01:38:06;14.07;;;11.48;;
23531;SDS011;11943;52.270;20.978;2023-04-15T01:40:33;14.73;;;11.85;;
23531;SDS011;11943;52.270;20.978;2023-04-15T01:42:59;13.43;;;11.50;;
23531;SDS011;11943;52.270;20.978;2023-04-15T01:45:26;13.60;;;11.55;;
23531;SDS011;11943;52.270;20.978;2023-04-15T01:47:52;15.88;;;12.30;;
23531;SDS011;11943;52.270;20.978;2023-04-15T01:50:18;15.35;;;11.88;;
23531;SDS011;11943;52.270;20.978;2023-04-15T01:52:44;15.38;;;12.45;;
23531;SDS011;11943;52.270;20.978;2023-04-15T01:55:11;16.83;;;13.23;;
23531;SDS011;11943;52.270;20.978;2023-04-15T01:57:37;16.50;;;13.20;;
23531;SDS011;11943;52.270;20.978;2023-04-15T02:00:03;16.52;;;12.98;;
23531;SDS011;11943;52.270;20.978;2023-04-15T02:02:28;17.40;;;13.50;;
23531;SDS011;11943;52.270;20.978;2023-04-15T02:04:54;20.00;;;13.23;;
23531;SDS011;11943;52.270;20.978;2023-04-15T02:07:20;17.98;;;14.52;;
23531;SDS011;11943;52.270;20.978;2023-04-15T02:09:46;18.25;;;14.38;;
23531;SDS011;11943;52.270;20.978;2023-04-15T02:12:11;15.85;;;13.50;;
23531;SDS011;11943;52.270;20.978;2023-04-15T02:14:37;16.63;;;13.38;;
23531;SDS011;11943;52.270;20.978;2023-04-15T02:17:03;18.45;;;14.80;;
23531;SDS011;11943;52.270;20.978;2023-04-15T02:19:32;18.60;;;14.95;;
23531;SDS011;11943;52.270;20.978;2023-04-15T02:21:59;20.95;;;14.48;;
23531;SDS011;11943;52.270;20.978;2023-04-15T02:24:26;19.25;;;14.32;;
23531;SDS011;11943;52.270;20.978;2023-04-15T02:26:52;17.50;;;14.30;;
23531;SDS011;11943;52.270;20.978;2023-04-15T02:29:17;20.98;;;15.50;;
23531;SDS011;11943;52.270;20.978;2023-04-15T02:31:43;22.50;;;14.82;;
23531;SDS011;11943;52.270;20.978;2023-04-15T02:34:09;20.58;;;16.20;;
23531;SDS011;11943;52.270;20.978;2023-04-15T02:36:35;19.13;;;14.73;;
23531;SDS011;11943;52.270;20.978;2023-04-15T02:39:00;21.27;;;15.20;;
23531;SDS011;11943;52.270;20.978;2023-04-15T02:41:27;18.83;;;14.38;;
23531;SDS011;11943;52.270;20.978;2023-04-15T02:43:54;22.52;;;14.00;;
23531;SDS011;11943;52.270;20.978;2023-04-15T02:46:20;19.52;;;14.27;;
23531;SDS011;11943;52.270;20.978;2023-04-15T02:48:47;21.10;;;14.32;;
23531;SDS011;11943;52.270;20.978;2023-04-15T02:51:14;17.80;;;13.90;;
23531;SDS011;11943;52.270;20.978;2023-04-15T02:56:07;17.45;;;13.90;;
23531;SDS011;11943;52.270;20.978;2023-04-15T02:58:33;20.15;;;14.52;;
23531;SDS011;11943;52.270;20.978;2023-04-15T03:00:59;16.92;;;13.52;;
23531;SDS011;11943;52.270;20.978;2023-04-15T03:03:25;16.92;;;13.70;;
23531;SDS011;11943;52.270;20.978;2023-04-15T03:05:52;17.67;;;12.45;;
23531;SDS011;11943;52.270;20.978;2023-04-15T03:08:18;15.68;;;13.63;;
23531;SDS011;11943;52.270;20.978;2023-04-15T03:10:45;18.70;;;14.13;;
23531;SDS011;11943;52.270;20.978;2023-04-15T03:13:11;18.63;;;13.85;;
23531;SDS011;11943;52.270;20.978;2023-04-15T03:15:37;17.65;;;13.98;;
23531;SDS011;11943;52.270;20.978;2023-04-15T03:18:02;16.42;;;13.27;;
23531;SDS011;11943;52.270;20.978;2023-04-15T03:20:28;18.65;;;13.73;;
23531;SDS011;11943;52.270;20.978;2023-04-15T03:22:54;18.05;;;14.40;;
23531;SDS011;11943;52.270;20.978;2023-04-15T03:25:19;19.40;;;14.20;;
23531;SDS011;11943;52.270;20.978;2023-04-15T03:27:45;20.95;;;14.02;;
23531;SDS011;11943;52.270;20.978;2023-04-15T03:30:11;18.73;;;13.18;;
23531;SDS011;11943;52.270;20.978;2023-04-15T03:32:37;16.00;;;13.63;;
23531;SDS011;11943;52.270;20.978;2023-04-15T03:35:03;18.95;;;13.50;;
23531;SDS011;11943;52.270;20.978;2023-04-15T03:37:29;17.67;;;13.20;;
23531;SDS011;11943;52.270;20.978;2023-04-15T03:39:55;18.58;;;13.75;;
23531;SDS011;11943;52.270;20.978;2023-04-15T03:42:21;21.20;;;14.07;;
23531;SDS011;11943;52.270;20.978;2023-04-15T03:44:46;18.10;;;12.77;;
23531;SDS011;11943;52.270;20.978;2023-04-15T03:47:12;18.95;;;13.93;;
23531;SDS011;11943;52.270;20.978;2023-04-15T03:49:37;18.08;;;13.85;;
23531;SDS011;11943;52.270;20.978;2023-04-15T03:52:03;17.10;;;13.57;;
23531;SDS011;11943;52.270;20.978;2023-04-15T03:54:29;18.80;;;14.30;;
23531;SDS011;11943;52.270;20.978;2023-04-15T03:56:55;18.25;;;13.23;;
23531;SDS011;11943;52.270;20.978;2023-04-15T03:59:21;16.02;;;13.27;;
23531;SDS011;11943;52.270;20.978;2023-04-15T04:01:47;17.45;;;12.57;;
23531;SDS011;11943;52.270;20.978;2023-04-15T04:04:13;16.73;;;13.00;;
23531;SDS011;11943;52.270;20.978;2023-04-15T04:06:38;17.33;;;13.50;;
23531;SDS011;11943;52.270;20.978;2023-04-15T04:09:04;16.55;;;12.75;;
23531;SDS011;11943;52.270;20.978;2023-04-15T04:11:30;17.75;;;14.15;;
23531;SDS011;11943;52.270;20.978;2023-04-15T04:13:55;15.95;;;13.32;;
23531;SDS011;11943;52.270;20.978;2023-04-15T04:16:21;16.92;;;12.80;;
23531;SDS011;11943;52.270;20.978;2023-04-15T04:18:47;17.50;;;13.18;;
23531;SDS011;11943;52.270;20.978;2023-04-15T04:21:12;15.82;;;12.43;;
23531;SDS011;11943;52.270;20.978;2023-04-15T04:23:38;16.27;;;13.07;;
23531;SDS011;11943;52.270;20.978;2023-04-15T04:26:03;18.75;;;14.18;;
23531;SDS011;11943;52.270;20.978;2023-04-15T04:28:29;19.55;;;12.95;;
23531;SDS011;11943;52.270;20.978;2023-04-15T04:30:55;16.88;;;13.75;;
23531;SDS011;11943;52.270;20.978;2023-04-15T04:33:21;19.20;;;13.70;;
23531;SDS011;11943;52.270;20.978;2023-04-15T04:35:46;18.33;;;13.93;;
23531;SDS011;11943;52.270;20.978;2023-04-15T04:38:12;16.02;;;13.20;;
23531;SDS011;11943;52.270;20.978;2023-04-15T04:40:38;17.40;;;13.32;;
23531;SDS011;11943;52.270;20.978;2023-04-15T04:43:03;17.33;;;12.90;;
23531;SDS011;11943;52.270;20.978;2023-04-15T04:45:29;15.00;;;13.35;;
23531;SDS011;11943;52.270;20.978;2023-04-15T04:47:55;17.65;;;13.43;;
23531;SDS011;11943;52.270;20.978;2023-04-15T04:50:20;20.17;;;13.02;;
23531;SDS011;11943;52.270;20.978;2023-04-15T04:52:46;20.13;;;13.63;;
23531;SDS011;11943;52.270;20.978;2023-04-15T04:55:12;18.23;;;13.30;;
23531;SDS011;11943;52.270;20.978;2023-04-15T04:57:37;20.13;;;14.00;;
23531;SDS011;11943;52.270;20.978;2023-04-15T05:00:04;18.83;;;14.40;;
23531;SDS011;11943;52.270;20.978;2023-04-15T05:02:30;21.98;;;14.32;;
23531;SDS011;11943;52.270;20.978;2023-04-15T05:04:56;17.92;;;13.82;;
23531;SDS011;11943;52.270;20.978;2023-04-15T05:07:22;20.58;;;14.15;;
23531;SDS011;11943;52.270;20.978;2023-04-15T05:09:48;18.42;;;14.25;;
23531;SDS011;11943;52.270;20.978;2023-04-15T05:12:13;18.77;;;13.75;;
23531;SDS011;11943;52.270;20.978;2023-04-15T05:14:39;18.77;;;13.65;;
23531;SDS011;11943;52.270;20.978;2023-04-15T05:17:06;16.58;;;13.63;;
23531;SDS011;11943;52.270;20.978;2023-04-15T05:19:32;15.68;;;13.15;;
23531;SDS011;11943;52.270;20.978;2023-04-15T05:21:58;19.58;;;13.52;;
23531;SDS011;11943;52.270;20.978;2023-04-15T05:24:24;15.45;;;12.60;;
23531;SDS011;11943;52.270;20.978;2023-04-15T05:26:51;15.70;;;12.98;;
23531;SDS011;11943;52.270;20.978;2023-04-15T05:29:16;16.13;;;12.75;;
23531;SDS011;11943;52.270;20.978;2023-04-15T05:31:42;18.95;;;12.57;;
23531;SDS011;11943;52.270;20.978;2023-04-15T05:34:08;17.45;;;12.63;;
23531;SDS011;11943;52.270;20.978;2023-04-15T05:36:34;14.63;;;11.75;;
23531;SDS011;11943;52.270;20.978;2023-04-15T05:38:59;14.27;;;11.93;;
23531;SDS011;11943;52.270;20.978;2023-04-15T05:41:25;18.17;;;12.60;;
23531;SDS011;11943;52.270;20.978;2023-04-15T05:43:51;14.98;;;12.55;;
23531;SDS011;11943;52.270;20.978;2023-04-15T05:46:17;15.07;;;11.90;;
23531;SDS011;11943;52.270;20.978;2023-04-15T05:48:42;15.35;;;12.85;;
23531;SDS011;11943;52.270;20.978;2023-04-15T05:51:08;16.23;;;12.82;;
23531;SDS011;11943;52.270;20.978;2023-04-15T05:53:33;18.23;;;12.35;;
23531;SDS011;11943;52.270;20.978;2023-04-15T05:55:59;16.20;;;12.65;;
23531;SDS011;11943;52.270;20.978;2023-04-15T05:58:25;16.48;;;12.27;;
23531;SDS011;11943;52.270;20.978;2023-04-15T06:00:51;15.20;;;11.98;;
23531;SDS011;11943;52.270;20.978;2023-04-15T06:03:17;15.45;;;12.43;;
23531;SDS011;11943;52.270;20.978;2023-04-15T06:05:42;16.00;;;11.70;;
23531;SDS011;11943;52.270;20.978;2023-04-15T06:08:09;14.50;;;11.57;;
23531;SDS011;11943;52.270;20.978;2023-04-15T06:10:35;15.90;;;11.65;;
23531;SDS011;11943;52.270;20.978;2023-04-15T06:13:01;14.48;;;11.85;;
23531;SDS011;11943;52.270;20.978;2023-04-15T06:15:31;15.75;;;11.88;;
23531;SDS011;11943;52.270;20.978;2023-04-15T06:17:56;18.27;;;11.70;;
23531;SDS011;11943;52.270;20.978;2023-04-15T06:20:22;14.90;;;11.75;;
23531;SDS011;11943;52.270;20.978;2023-04-15T06:22:48;13.93;;;11.60;;
23531;SDS011;11943;52.270;20.978;2023-04-15T06:25:13;17.05;;;12.30;;
23531;SDS011;11943;52.270;20.978;2023-04-15T06:27:39;15.55;;;11.20;;
23531;SDS011;11943;52.270;20.978;2023-04-15T06:30:05;14.07;;;11.75;;
23531;SDS011;11943;52.270;20.978;2023-04-15T06:32:32;14.73;;;11.57;;
23531;SDS011;11943;52.270;20.978;2023-04-15T06:34:58;14.27;;;11.07;;
23531;SDS011;11943;52.270;20.978;2023-04-15T06:37:23;17.27;;;12.02;;
23531;SDS011;11943;52.270;20.978;2023-04-15T06:39:49;14.90;;;11.75;;
23531;SDS011;11943;52.270;20.978;2023-04-15T06:42:14;15.65;;;10.93;;
23531;SDS011;11943;52.270;20.978;2023-04-15T06:44:40;15.65;;;11.27;;
23531;SDS011;11943;52.270;20.978;2023-04-15T06:47:06;13.43;;;11.18;;
23531;SDS011;11943;52.270;20.978;2023-04-15T06:49:33;16.30;;;11.45;;
23531;SDS011;11943;52.270;20.978;2023-04-15T06:51:59;16.90;;;11.60;;
23531;SDS011;11943;52.270;20.978;2023-04-15T06:54:25;14.73;;;10.98;;
23531;SDS011;11943;52.270;20.978;2023-04-15T06:56:51;14.63;;;11.15;;
23531;SDS011;11943;52.270;20.978;2023-04-15T06:59:17;16.60;;;10.95;;
23531;SDS011;11943;52.270;20.978;2023-04-15T07:01:43;13.60;;;10.63;;
23531;SDS011;11943;52.270;20.978;2023-04-15T07:04:08;16.63;;;11.00;;
23531;SDS011;11943;52.270;20.978;2023-04-15T07:06:35;16.58;;;10.32;;
23531;SDS011;11943;52.270;20.978;2023-04-15T07:09:01;12.80;;;10.38;;
23531;SDS011;11943;52.270;20.978;2023-04-15T07:11:27;11.95;;;10.27;;
23531;SDS011;11943;52.270;20.978;2023-04-15T07:13:52;14.15;;;10.52;;
23531;SDS011;11943;52.270;20.978;2023-04-15T07:16:18;14.80;;;10.07;;
23531;SDS011;11943;52.270;20.978;2023-04-15T07:18:44;14.20;;;10.27;;
23531;SDS011;11943;52.270;20.978;2023-04-15T07:21:09;12.73;;;9.48;;
23531;SDS011;11943;52.270;20.978;2023-04-15T07:23:35;13.45;;;9.55;;
23531;SDS011;11943;52.270;20.978;2023-04-15T07:26:01;12.57;;;9.73;;
23531;SDS011;11943;52.270;20.978;2023-04-15T07:28:27;11.85;;;9.95;;
23531;SDS011;11943;52.270;20.978;2023-04-15T07:30:53;13.20;;;9.25;;
23531;SDS011;11943;52.270;20.978;2023-04-15T07:33:21;14.75;;;9.55;;
23531;SDS011;11943;52.270;20.978;2023-04-15T07:35:47;9.52;;;8.52;;
23531;SDS011;11943;52.270;20.978;2023-04-15T07:38:13;10.07;;;8.95;;
23531;SDS011;11943;52.270;20.978;2023-04-15T07:40:39;10.80;;;8.38;;
23531;SDS011;11943;52.270;20.978;2023-04-15T07:43:04;10.18;;;8.18;;
23531;SDS011;11943;52.270;20.978;2023-04-15T07:45:31;11.00;;;8.57;;
23531;SDS011;11943;52.270;20.978;2023-04-15T07:47:56;9.85;;;8.32;;
23531;SDS011;11943;52.270;20.978;2023-04-15T07:50:22;9.90;;;8.18;;
23531;SDS011;11943;52.270;20.978;2023-04-15T07:52:49;8.82;;;7.93;;
23531;SDS011;11943;52.270;20.978;2023-04-15T07:55:15;8.93;;;7.80;;
23531;SDS011;11943;52.270;20.978;2023-04-15T07:57:44;8.95;;;8.02;;
23531;SDS011;11943;52.270;20.978;2023-04-15T08:00:11;10.00;;;8.55;;
23531;SDS011;11943;52.270;20.978;2023-04-15T08:02:37;10.68;;;7.85;;
23531;SDS011;11943;52.270;20.978;2023-04-15T08:05:03;9.27;;;7.63;;
23531;SDS011;11943;52.270;20.978;2023-04-15T08:07:29;10.20;;;7.13;;
23531;SDS011;11943;52.270;20.978;2023-04-15T08:09:55;8.35;;;7.45;;
23531;SDS011;11943;52.270;20.978;2023-04-15T08:12:20;8.40;;;6.22;;
23531;SDS011;11943;52.270;20.978;2023-04-15T08:14:47;8.15;;;6.75;;
23531;SDS011;11943;52.270;20.978;2023-04-15T08:17:13;9.68;;;6.68;;
23531;SDS011;11943;52.270;20.978;2023-04-15T08:19:39;8.73;;;6.82;;
23531;SDS011;11943;52.270;20.978;2023-04-15T08:22:06;8.95;;;6.72;;
23531;SDS011;11943;52.270;20.978;2023-04-15T08:24:32;8.20;;;6.38;;
23531;SDS011;11943;52.270;20.978;2023-04-15T08:26:58;9.38;;;6.50;;
23531;SDS011;11943;52.270;20.978;2023-04-15T08:29:24;8.23;;;6.28;;
23531;SDS011;11943;52.270;20.978;2023-04-15T08:31:49;8.05;;;6.03;;
23531;SDS011;11943;52.270;20.978;2023-04-15T08:34:15;9.05;;;6.38;;
23531;SDS011;11943;52.270;20.978;2023-04-15T08:36:42;6.97;;;5.57;;
23531;SDS011;11943;52.270;20.978;2023-04-15T08:39:07;8.05;;;6.38;;
23531;SDS011;11943;52.270;20.978;2023-04-15T08:41:38;7.55;;;5.97;;
23531;SDS011;11943;52.270;20.978;2023-04-15T08:44:12;6.38;;;5.65;;
23531;SDS011;11943;52.270;20.978;2023-04-15T08:46:38;7.75;;;6.28;;
23531;SDS011;11943;52.270;20.978;2023-04-15T08:49:10;7.57;;;5.65;;
23531;SDS011;11943;52.270;20.978;2023-04-15T08:51:37;7.70;;;5.80;;
23531;SDS011;11943;52.270;20.978;2023-04-15T08:54:07;5.40;;;4.90;;
23531;SDS011;11943;52.270;20.978;2023-04-15T08:56:33;7.10;;;5.15;;
23531;SDS011;11943;52.270;20.978;2023-04-15T08:58:59;6.53;;;5.53;;
23531;SDS011;11943;52.270;20.978;2023-04-15T09:01:25;6.32;;;4.80;;
23531;SDS011;11943;52.270;20.978;2023-04-15T09:03:51;6.00;;;5.00;;
23531;SDS011;11943;52.270;20.978;2023-04-15T09:06:20;5.47;;;4.85;;
23531;SDS011;11943;52.270;20.978;2023-04-15T09:08:48;7.03;;;5.70;;
23531;SDS011;11943;52.270;20.978;2023-04-15T09:11:14;5.93;;;5.38;;
23531;SDS011;11943;52.270;20.978;2023-04-15T09:13:41;5.63;;;4.80;;
23531;SDS011;11943;52.270;20.978;2023-04-15T09:16:07;6.03;;;4.97;;
23531;SDS011;11943;52.270;20.978;2023-04-15T09:18:34;6.72;;;5.15;;
23531;SDS011;11943;52.270;20.978;2023-04-15T09:21:08;4.20;;;3.80;;
23531;SDS011;11943;52.270;20.978;2023-04-15T09:23:37;4.70;;;4.18;;
23531;SDS011;11943;52.270;20.978;2023-04-15T09:26:04;6.95;;;4.63;;
23531;SDS011;11943;52.270;20.978;2023-04-15T09:28:30;6.15;;;4.45;;
23531;SDS011;11943;52.270;20.978;2023-04-15T09:30:56;6.03;;;4.63;;
23531;SDS011;11943;52.270;20.978;2023-04-15T09:33:23;5.43;;;4.25;;
23531;SDS011;11943;52.270;20.978;2023-04-15T09:36:03;4.55;;;4.15;;
23531;SDS011;11943;52.270;20.978;2023-04-15T09:38:30;7.63;;;4.55;;
23531;SDS011;11943;52.270;20.978;2023-04-15T09:40:56;4.68;;;4.25;;
23531;SDS011;11943;52.270;20.978;2023-04-15T09:43:36;6.25;;;4.10;;
23531;SDS011;11943;52.270;20.978;2023-04-15T09:46:03;4.93;;;4.40;;
23531;SDS011;11943;52.270;20.978;2023-04-15T09:48:29;4.43;;;4.03;;
23531;SDS011;11943;52.270;20.978;2023-04-15T09:50:59;5.43;;;4.63;;
23531;SDS011;11943;52.270;20.978;2023-04-15T09:53:25;6.20;;;4.30;;
23531;SDS011;11943;52.270;20.978;2023-04-15T09:58:22;6.03;;;4.65;;
23531;SDS011;11943;52.270;20.978;2023-04-15T10:00:50;4.43;;;4.03;;
23531;SDS011;11943;52.270;20.978;2023-04-15T10:03:19;4.40;;;4.00;;
23531;SDS011;11943;52.270;20.978;2023-04-15T10:05:46;4.30;;;3.90;;
23531;SDS011;11943;52.270;20.978;2023-04-15T10:08:17;6.93;;;4.68;;
23531;SDS011;11943;52.270;20.978;2023-04-15T10:10:44;9.50;;;4.45;;
23531;SDS011;11943;52.270;20.978;2023-04-15T10:15:38;4.55;;;4.03;;
23531;SDS011;11943;52.270;20.978;2023-04-15T10:18:07;7.20;;;3.85;;
23531;SDS011;11943;52.270;20.978;2023-04-15T10:20:35;5.70;;;4.60;;
23531;SDS011;11943;52.270;20.978;2023-04-15T10:23:02;5.25;;;4.50;;
23531;SDS011;11943;52.270;20.978;2023-04-15T10:25:28;4.75;;;4.35;;
23531;SDS011;11943;52.270;20.978;2023-04-15T10:27:54;5.22;;;4.30;;
23531;SDS011;11943;52.270;20.978;2023-04-15T10:30:21;4.72;;;3.85;;
23531;SDS011;11943;52.270;20.978;2023-04-15T10:32:47;5.60;;;4.35;;
23531;SDS011;11943;52.270;20.978;2023-04-15T10:35:14;4.72;;;4.25;;
23531;SDS011;11943;52.270;20.978;2023-04-15T10:37:40;4.60;;;4.00;;
23531;SDS011;11943;52.270;20.978;2023-04-15T10:42:51;7.18;;;4.18;;
23531;SDS011;11943;52.270;20.978;2023-04-15T10:45:20;6.47;;;4.28;;
23531;SDS011;11943;52.270;20.978;2023-04-15T10:47:50;4.15;;;3.75;;
23531;SDS011;11943;52.270;20.978;2023-04-15T10:50:19;4.82;;;4.20;;
23531;SDS011;11943;52.270;20.978;2023-04-15T10:52:48;5.80;;;4.22;;
23531;SDS011;11943;52.270;20.978;2023-04-15T10:55:20;6.82;;;4.60;;
23531;SDS011;11943;52.270;20.978;2023-04-15T10:57:50;4.88;;;4.38;;
23531;SDS011;11943;52.270;20.978;2023-04-15T11:00:18;5.28;;;4.78;;
23531;SDS011;11943;52.270;20.978;2023-04-15T11:08:07;6.68;;;4.50;;
23531;SDS011;11943;52.270;20.978;2023-04-15T11:12:59;5.05;;;4.20;;
23531;SDS011;11943;52.270;20.978;2023-04-15T11:15:35;4.70;;;4.30;;
23531;SDS011;11943;52.270;20.978;2023-04-15T11:20:36;5.90;;;3.97;;
23531;SDS011;11943;52.270;20.978;2023-04-15T11:23:02;5.97;;;3.83;;
23531;SDS011;11943;52.270;20.978;2023-04-15T11:25:29;4.65;;;3.88;;
23531;SDS011;11943;52.270;20.978;2023-04-15T11:27:58;6.22;;;4.05;;
23531;SDS011;11943;52.270;20.978;2023-04-15T11:30:26;6.38;;;4.20;;
23531;SDS011;11943;52.270;20.978;2023-04-15T11:32:56;7.65;;;3.95;;
23531;SDS011;11943;52.270;20.978;2023-04-15T11:35:24;4.05;;;3.67;;
23531;SDS011;11943;52.270;20.978;2023-04-15T11:37:49;4.53;;;3.95;;
23531;SDS011;11943;52.270;20.978;2023-04-15T11:40:16;4.30;;;3.88;;
23531;SDS011;11943;52.270;20.978;2023-04-15T11:42:46;4.55;;;4.05;;
23531;SDS011;11943;52.270;20.978;2023-04-15T11:45:27;4.53;;;3.72;;
23531;SDS011;11943;52.270;20.978;2023-04-15T11:47:53;4.10;;;3.70;;
23531;SDS011;11943;52.270;20.978;2023-04-15T11:50:22;5.40;;;3.72;;
23531;SDS011;11943;52.270;20.978;2023-04-15T11:52:58;4.85;;;4.35;;
23531;SDS011;11943;52.270;20.978;2023-04-15T11:55:25;4.30;;;3.88;;
23531;SDS011;11943;52.270;20.978;2023-04-15T12:00:38;4.78;;;4.07;;
23531;SDS011;11943;52.270;20.978;2023-04-15T12:13:57;4.72;;;4.28;;
23531;SDS011;11943;52.270;20.978;2023-04-15T12:16:23;4.68;;;3.55;;
23531;SDS011;11943;52.270;20.978;2023-04-15T12:18:52;5.20;;;3.88;;
23531;SDS011;11943;52.270;20.978;2023-04-15T12:21:26;4.85;;;4.00;;
23531;SDS011;11943;52.270;20.978;2023-04-15T12:23:57;4.72;;;4.32;;
23531;SDS011;11943;52.270;20.978;2023-04-15T12:26:27;5.82;;;3.63;;
23531;SDS011;11943;52.270;20.978;2023-04-15T12:29:02;4.68;;;3.92;;
23531;SDS011;11943;52.270;20.978;2023-04-15T12:31:32;5.90;;;4.30;;
23531;SDS011;11943;52.270;20.978;2023-04-15T12:33:59;4.55;;;4.07;;
23531;SDS011;11943;52.270;20.978;2023-04-15T12:36:26;4.75;;;3.95;;
23531;SDS011;11943;52.270;20.978;2023-04-15T12:38:52;4.32;;;3.75;;
23531;SDS011;11943;52.270;20.978;2023-04-15T12:41:18;5.43;;;4.30;;
23531;SDS011;11943;52.270;20.978;2023-04-15T12:43:45;5.65;;;4.20;;
23531;SDS011;11943;52.270;20.978;2023-04-15T12:46:12;6.90;;;4.10;;
23531;SDS011;11943;52.270;20.978;2023-04-15T12:48:38;7.63;;;4.05;;
23531;SDS011;11943;52.270;20.978;2023-04-15T12:51:04;7.13;;;4.35;;
23531;SDS011;11943;52.270;20.978;2023-04-15T12:53:30;5.50;;;4.80;;
23531;SDS011;11943;52.270;20.978;2023-04-15T12:55:56;5.57;;;4.43;;
23531;SDS011;11943;52.270;20.978;2023-04-15T12:58:21;4.40;;;4.00;;
23531;SDS011;11943;52.270;20.978;2023-04-15T13:00:47;5.47;;;4.57;;
23531;SDS011;11943;52.270;20.978;2023-04-15T13:03:14;5.28;;;4.55;;
23531;SDS011;11943;52.270;20.978;2023-04-15T13:05:40;3.92;;;3.53;;
23531;SDS011;11943;52.270;20.978;2023-04-15T13:08:06;5.88;;;3.85;;
23531;SDS011;11943;52.270;20.978;2023-04-15T13:10:32;7.43;;;4.18;;
23531;SDS011;11943;52.270;20.978;2023-04-15T13:13:00;5.75;;;3.72;;
23531;SDS011;11943;52.270;20.978;2023-04-15T13:15:27;4.95;;;4.30;;
23531;SDS011;11943;52.270;20.978;2023-04-15T13:17:52;7.70;;;4.20;;
23531;SDS011;11943;52.270;20.978;2023-04-15T13:20:18;7.68;;;4.25;;
23531;SDS011;11943;52.270;20.978;2023-04-15T13:22:44;6.03;;;4.32;;
23531;SDS011;11943;52.270;20.978;2023-04-15T13:25:10;3.70;;;3.40;;
23531;SDS011;11943;52.270;20.978;2023-04-15T13:27:36;5.20;;;3.50;;
23531;SDS011;11943;52.270;20.978;2023-04-15T13:30:02;5.47;;;3.70;;
23531;SDS011;11943;52.270;20.978;2023-04-15T13:32:29;4.23;;;3.83;;
23531;SDS011;11943;52.270;20.978;2023-04-15T13:34:54;4.93;;;3.20;;
23531;SDS011;11943;52.270;20.978;2023-04-15T13:37:24;3.70;;;3.00;;
23531;SDS011;11943;52.270;20.978;2023-04-15T13:39:51;4.10;;;3.20;;
23531;SDS011;11943;52.270;20.978;2023-04-15T13:42:17;5.65;;;3.50;;
23531;SDS011;11943;52.270;20.978;2023-04-15T13:44:43;4.95;;;3.45;;
23531;SDS011;11943;52.270;20.978;2023-04-15T13:47:08;3.42;;;2.78;;
23531;SDS011;11943;52.270;20.978;2023-04-15T13:49:34;3.70;;;2.42;;
23531;SDS011;11943;52.270;20.978;2023-04-15T13:52:00;2.72;;;2.38;;
23531;SDS011;11943;52.270;20.978;2023-04-15T13:54:25;4.00;;;2.60;;
23531;SDS011;11943;52.270;20.978;2023-04-15T13:56:51;3.75;;;2.72;;
23531;SDS011;11943;52.270;20.978;2023-04-15T13:59:16;3.13;;;2.42;;
23531;SDS011;11943;52.270;20.978;2023-04-15T14:01:42;4.57;;;2.55;;
23531;SDS011;11943;52.270;20.978;2023-04-15T14:04:08;4.10;;;2.45;;
23531;SDS011;11943;52.270;20.978;2023-04-15T14:06:34;3.88;;;2.42;;
23531;SDS011;11943;52.270;20.978;2023-04-15T14:09:00;4.38;;;2.75;;
23531;SDS011;11943;52.270;20.978;2023-04-15T14:11:26;3.15;;;2.72;;
23531;SDS011;11943;52.270;20.978;2023-04-15T14:13:52;4.93;;;3.13;;
23531;SDS011;11943;52.270;20.978;2023-04-15T14:16:17;3.55;;;2.72;;
23531;SDS011;11943;52.270;20.978;2023-04-15T14:18:43;4.53;;;3.10;;
23531;SDS011;11943;52.270;20.978;2023-04-15T14:21:08;3.22;;;2.88;;
23531;SDS011;11943;52.270;20.978;2023-04-15T14:23:34;4.03;;;3.17;;
23531;SDS011;11943;52.270;20.978;2023-04-15T14:26:00;4.95;;;3.67;;
23531;SDS011;11943;52.270;20.978;2023-04-15T14:28:26;4.78;;;3.53;;
23531;SDS011;11943;52.270;20.978;2023-04-15T14:30:51;3.75;;;3.35;;
23531;SDS011;11943;52.270;20.978;2023-04-15T14:33:18;4.88;;;3.50;;
23531;SDS011;11943;52.270;20.978;2023-04-15T14:35:43;3.25;;;2.80;;
23531;SDS011;11943;52.270;20.978;2023-04-15T14:38:09;3.35;;;2.60;;
23531;SDS011;11943;52.270;20.978;2023-04-15T14:40:35;5.40;;;3.40;;
23531;SDS011;11943;52.270;20.978;2023-04-15T14:43:01;3.60;;;2.78;;
23531;SDS011;11943;52.270;20.978;2023-04-15T14:45:27;3.22;;;2.50;;
23531;SDS011;11943;52.270;20.978;2023-04-15T14:47:53;3.03;;;2.70;;
23531;SDS011;11943;52.270;20.978;2023-04-15T14:50:20;3.45;;;2.45;;